Time;durP1;ratioP1;P1;durP2;ratioP2;P2;SDS_P1;SDS_P2;PMS_P1;PMS_P2;Temp;Humidity;BMP_temperature;BMP_pressure;BME280_temperature;BME280_humidity;BME280_pressure;Samples;Min_cycle;Max_cycle;Signal;HPM_P1;HPM_P2
2024/01/23 00:00:19;;;;;;;;;;;;;;;5.59;100.00;101049.16;4896931;29;20284;-76
2024/01/23 00:02:45;;;;;;;;;;;;;;;5.60;100.00;101063.34;4895452;29;19927;-76
2024/01/23 00:05:10;;;;;;;;;;;;;;;5.55;100.00;101060.31;4896319;29;19971;-76
2024/01/23 00:07:35;;;;;;;;;;;;;;;5.54;100.00;101072.00;4895296;29;19923;-77
2024/01/23 00:10:01;;;;;;;;;;;;;;;5.53;100.00;101076.47;4895526;29;20304;-76
2024/01/23 00:12:26;;;;;;;;;;;;;;;5.55;100.00;101047.78;4896311;29;20265;-76
2024/01/23 00:14:51;;;;;;;;;;;;;;;5.55;100.00;101074.50;4895791;29;20280;-77
2024/01/23 00:17:16;;;;;;;;;;;;;;;5.51;100.00;101067.78;4896156;29;20265;-77
2024/01/23 00:19:42;;;;;;;;;;;;;;;5.40;100.00;101092.09;4895499;29;19927;-77
2024/01/23 00:22:07;;;;;;;;;;;;;;;5.37;100.00;101073.72;4895348;29;19923;-77
2024/01/23 00:24:32;;;;;;;;;;;;;;;5.35;100.00;101083.72;4895504;29;19931;-77
2024/01/23 00:26:57;;;;;;;;;;;;;;;5.38;100.00;101099.41;4895501;29;19919;-77
2024/01/23 00:29:22;;;;;;;;;;;;;;;5.46;100.00;101107.50;4910072;23;19935;-77
2024/01/23 00:31:48;;;;;;;;;;;;;;;5.41;100.00;101102.59;4895250;29;19924;-77
2024/01/23 00:34:13;;;;;;;;;;;;;;;5.44;100.00;101096.13;4895698;29;19930;-76
2024/01/23 00:36:38;;;;;;;;;;;;;;;5.44;100.00;101104.97;4895344;29;19924;-77
2024/01/23 00:39:03;;;;;;;;;;;;;;;5.42;100.00;101108.81;4895925;29;19938;-77
2024/01/23 00:41:29;;;;;;;;;;;;;;;5.27;100.00;101122.72;4899395;29;20384;-77
2024/01/23 00:43:54;;;;;;;;;;;;;;;5.29;100.00;101134.09;4899946;29;19923;-77
2024/01/23 00:46:19;;;;;;;;;;;;;;;5.35;100.00;101145.13;4899858;29;20280;-77
2024/01/23 00:48:44;;;;;;;;;;;;;;;5.35;100.00;101147.78;4899550;29;20296;-77
2024/01/23 00:51:09;;;;;;;;;;;;;;;5.37;100.00;101148.47;4899281;29;20334;-77
2024/01/23 00:53:35;;;;;;;;;;;;;;;5.39;100.00;101158.00;4899463;29;20308;-77
2024/01/23 00:56:00;;;;;;;;;;;;;;;5.40;100.00;101157.00;4899126;29;20337;-77
2024/01/23 00:58:25;;;;;;;;;;;;;;;5.41;100.00;101148.00;4899208;29;19995;-77
2024/01/23 01:00:50;;;;;;;;;;;;;;;5.37;100.00;101156.47;4899518;29;19923;-77
2024/01/23 01:03:16;;;;;;;;;;;;;;;5.33;100.00;101155.97;4898391;29;19930;-77
2024/01/23 01:05:41;;;;;;;;;;;;;;;5.35;100.00;101163.78;4899170;29;19923;-77
2024/01/23 01:08:07;;;;;;;;;;;;;;;5.35;100.00;101171.81;4899207;29;19946;-77
2024/01/23 01:10:32;;;;;;;;;;;;;;;5.29;100.00;101176.78;4898632;29;19930;-77
2024/01/23 01:12:57;;;;;;;;;;;;;;;5.29;100.00;101170.59;4899019;29;19923;-77
2024/01/23 01:15:22;;;;;;;;;;;;;;;5.24;100.00;101184.41;4882168;29;19938;-77
2024/01/23 01:17:50;;;;;;;;;;;;;;;5.33;100.00;101185.31;4898201;29;20129;-77
2024/01/23 01:20:16;;;;;;;;;;;;;;;5.37;100.00;101194.72;4898932;29;19927;-77
2024/01/23 01:22:41;;;;;;;;;;;;;;;5.40;100.00;101196.22;4898709;29;19939;-77
2024/01/23 01:25:06;;;;;;;;;;;;;;;5.39;100.00;101186.53;4897588;29;20042;-77
2024/01/23 01:27:32;;;;;;;;;;;;;;;5.42;100.00;101191.56;4898123;29;20018;-78
2024/01/23 01:29:57;;;;;;;;;;;;;;;5.34;100.00;101200.34;4898032;29;20022;-77
2024/01/23 01:32:22;;;;;;;;;;;;;;;5.35;100.00;101209.19;4897771;29;20043;-76
2024/01/23 01:34:47;;;;;;;;;;;;;;;5.38;100.00;101195.53;4898621;29;20368;-77
2024/01/23 01:37:13;;;;;;;;;;;;;;;5.36;100.00;101202.84;4899438;29;20364;-77
2024/01/23 01:39:38;;;;;;;;;;;;;;;5.36;100.00;101221.53;4896842;29;20266;-77
2024/01/23 01:42:03;;;;;;;;;;;;;;;5.28;100.00;101206.28;4898397;29;20284;-77
2024/01/23 01:44:31;;;;;;;;;;;;;;;5.25;100.00;101215.47;4899542;29;19946;-77
2024/01/23 01:46:56;;;;;;;;;;;;;;;5.27;100.00;101224.16;4897528;29;20381;-77
2024/01/23 01:49:21;;;;;;;;;;;;;;;5.21;100.00;101222.09;4898456;29;19997;-77
2024/01/23 01:51:53;;;;;;;;;;;;;;;5.21;100.00;101231.91;4881662;29;20010;-77
2024/01/23 01:54:19;;;;;;;;;;;;;;;5.15;100.00;101238.69;4879979;29;20419;-77
2024/01/23 01:56:44;;;;;;;;;;;;;;;5.10;100.00;101241.00;4897840;29;19924;-77
2024/01/23 01:59:10;;;;;;;;;;;;;;;5.04;100.00;101231.75;4898077;29;19927;-77
2024/01/23 02:01:36;;;;;;;;;;;;;;;4.96;100.00;101240.50;4896399;29;19979;-76
2024/01/23 02:04:01;;;;;;;;;;;;;;;4.94;100.00;101245.16;4897882;29;20332;-75
2024/01/23 02:06:26;;;;;;;;;;;;;;;4.91;100.00;101257.97;4899017;29;20336;-76
2024/01/23 02:08:51;;;;;;;;;;;;;;;4.83;100.00;101256.91;4896875;29;19924;-76
2024/01/23 02:11:17;;;;;;;;;;;;;;;4.78;100.00;101276.97;4880556;29;19930;-76
2024/01/23 02:13:42;;;;;;;;;;;;;;;4.85;100.00;101273.56;4898163;29;20014;-76
2024/01/23 02:16:07;;;;;;;;;;;;;;;4.88;100.00;101288.44;4897229;29;20039;-76
2024/01/23 02:18:33;;;;;;;;;;;;;;;4.76;100.00;101297.66;4897964;29;19938;-76
2024/01/23 02:20:58;;;;;;;;;;;;;;;4.78;100.00;101304.50;4897422;29;19927;-76
2024/01/23 02:23:29;;;;;;;;;;;;;;;4.72;100.00;101293.59;4896583;29;19924;-76
2024/01/23 02:25:55;;;;;;;;;;;;;;;4.71;100.00;101314.06;4897562;29;19924;-76
2024/01/23 02:28:20;;;;;;;;;;;;;;;4.60;100.00;101307.09;4897779;29;20403;-76
2024/01/23 02:30:46;;;;;;;;;;;;;;;4.49;100.00;101329.47;4897794;29;20423;-76
2024/01/23 02:33:12;;;;;;;;;;;;;;;4.48;100.00;101314.47;4897194;29;19927;-76
2024/01/23 02:35:37;;;;;;;;;;;;;;;4.49;100.00;101323.28;4893602;29;19931;-76
2024/01/23 02:38:07;;;;;;;;;;;;;;;4.45;100.00;101321.88;4897586;29;19923;-76
2024/01/23 02:40:32;;;;;;;;;;;;;;;4.38;100.00;101322.47;4897144;29;19932;-76
2024/01/23 02:42:58;;;;;;;;;;;;;;;4.38;100.00;101321.63;4897479;29;19930;-76
2024/01/23 02:45:23;;;;;;;;;;;;;;;4.32;100.00;101317.72;4897789;29;20010;-76
2024/01/23 02:47:48;;;;;;;;;;;;;;;4.22;100.00;101317.75;4897396;29;20015;-76
2024/01/23 02:50:13;;;;;;;;;;;;;;;4.17;100.00;101319.97;4896720;29;19924;-76
2024/01/23 02:52:39;;;;;;;;;;;;;;;4.15;100.00;101324.63;4896831;29;19923;-76
2024/01/23 02:55:04;;;;;;;;;;;;;;;4.10;100.00;101325.03;4896411;29;19924;-76
2024/01/23 02:57:29;;;;;;;;;;;;;;;4.08;100.00;101347.50;4896783;29;19934;-76
2024/01/23 02:59:54;;;;;;;;;;;;;;;4.06;100.00;101344.97;4897657;29;20384;-76
2024/01/23 03:02:20;;;;;;;;;;;;;;;4.06;100.00;101344.13;4895885;29;20384;-76
2024/01/23 03:04:46;;;;;;;;;;;;;;;4.04;100.00;101336.28;4896458;29;20436;-76
2024/01/23 03:07:17;;;;;;;;;;;;;;;4.02;100.00;101356.91;4897203;29;19923;-76
2024/01/23 03:09:42;;;;;;;;;;;;;;;4.00;100.00;101360.66;4896259;29;20018;-75
2024/01/23 03:12:14;;;;;;;;;;;;;;;3.94;100.00;101346.09;4895459;29;20014;-75
2024/01/23 03:14:43;;;;;;;;;;;;;;;3.92;100.00;101364.91;4897522;29;19923;-75
2024/01/23 03:17:09;;;;;;;;;;;;;;;3.84;100.00;101382.56;4896781;29;19966;-75
2024/01/23 03:19:34;;;;;;;;;;;;;;;3.78;100.00;101374.13;4896117;29;20443;-76
2024/01/23 03:21:59;;;;;;;;;;;;;;;3.83;100.00;101370.22;4896499;29;20017;-76
2024/01/23 03:24:24;;;;;;;;;;;;;;;3.97;100.00;101380.44;4895005;29;20006;-76
2024/01/23 03:26:49;;;;;;;;;;;;;;;3.99;100.00;101385.63;4896952;29;20014;-76
2024/01/23 03:29:15;;;;;;;;;;;;;;;3.99;100.00;101385.63;4896912;29;19967;-76
2024/01/23 03:31:40;;;;;;;;;;;;;;;4.06;100.00;101392.91;4895069;29;19966;-77
2024/01/23 03:34:08;;;;;;;;;;;;;;;4.03;100.00;101408.34;4896470;29;19930;-76
2024/01/23 03:36:33;;;;;;;;;;;;;;;4.15;100.00;101403.72;4889875;29;19955;-76
2024/01/23 03:38:58;;;;;;;;;;;;;;;4.18;100.00;101404.28;4895687;29;20359;-77
2024/01/23 03:41:24;;;;;;;;;;;;;;;4.22;100.00;101402.19;4893439;29;19927;-78
2024/01/23 03:43:49;;;;;;;;;;;;;;;4.24;100.00;101427.72;4897146;29;19935;-76
2024/01/23 03:46:14;;;;;;;;;;;;;;;4.17;100.00;101410.59;4895413;29;20423;-76
2024/01/23 03:48:39;;;;;;;;;;;;;;;4.21;100.00;101409.31;4896360;29;20403;-76
2024/01/23 03:51:05;;;;;;;;;;;;;;;4.25;100.00;101416.06;4896760;29;19927;-76
2024/01/23 03:53:30;;;;;;;;;;;;;;;4.21;100.00;101419.16;4895235;29;19936;-76
2024/01/23 03:55:55;;;;;;;;;;;;;;;4.19;100.00;101429.13;4896405;29;20451;-76
2024/01/23 03:58:20;;;;;;;;;;;;;;;4.19;100.00;101431.78;4896886;29;19927;-76
2024/01/23 04:00:46;;;;;;;;;;;;;;;4.18;100.00;101440.75;4894923;29;19923;-74
2024/01/23 04:03:11;;;;;;;;;;;;;;;4.15;100.00;101449.03;4896226;29;20018;-76
2024/01/23 04:05:37;;;;;;;;;;;;;;;4.21;100.00;101454.63;4897021;29;20020;-75
2024/01/23 04:08:02;;;;;;;;;;;;;;;4.16;100.00;101454.19;4895770;29;20006;-75
2024/01/23 04:10:27;;;;;;;;;;;;;;;4.15;100.00;101459.69;4895615;29;20261;-74
2024/01/23 04:12:52;;;;;;;;;;;;;;;4.10;100.00;101466.25;4896923;29;19970;-74
2024/01/23 04:15:17;;;;;;;;;;;;;;;4.13;100.00;101461.66;4894813;29;19924;-74
2024/01/23 04:17:43;;;;;;;;;;;;;;;4.08;100.00;101475.38;4895638;29;19971;-75
2024/01/23 04:20:08;;;;;;;;;;;;;;;4.07;100.00;101471.03;4897057;29;20257;-75
2024/01/23 04:22:35;;;;;;;;;;;;;;;4.08;100.00;101478.88;4895147;29;19947;-75
2024/01/23 04:25:00;;;;;;;;;;;;;;;4.08;100.00;101481.53;4896160;29;19935;-75
2024/01/23 04:27:25;;;;;;;;;;;;;;;4.06;100.00;101488.84;4896630;29;19972;-76
2024/01/23 04:29:50;;;;;;;;;;;;;;;4.04;100.00;101488.16;4894973;29;19923;-75
2024/01/23 04:32:18;;;;;;;;;;;;;;;3.99;100.00;101503.69;4896027;29;19984;-74
2024/01/23 04:34:43;;;;;;;;;;;;;;;3.93;100.00;101496.25;4895961;29;19932;-74
2024/01/23 04:37:09;;;;;;;;;;;;;;;3.89;100.00;101508.16;4895665;29;19950;-75
2024/01/23 04:39:34;;;;;;;;;;;;;;;3.96;100.00;101516.47;4895747;29;20031;-75
2024/01/23 04:41:59;;;;;;;;;;;;;;;3.90;100.00;101517.81;4895193;29;19958;-75
2024/01/23 04:44:24;;;;;;;;;;;;;;;3.96;100.00;101517.28;4896002;29;19935;-75
2024/01/23 04:46:50;;;;;;;;;;;;;;;3.95;100.00;101528.94;4895020;29;19935;-75
2024/01/23 04:49:15;;;;;;;;;;;;;;;3.97;100.00;101532.31;4895772;29;19934;-75
2024/01/23 04:51:40;;;;;;;;;;;;;;;4.02;100.00;101535.41;4896016;29;19923;-75
2024/01/23 04:54:05;;;;;;;;;;;;;;;4.05;100.00;101535.13;4895437;29;19931;-74
2024/01/23 04:56:30;;;;;;;;;;;;;;;4.13;100.00;101538.91;4895232;29;19924;-80
2024/01/23 04:58:58;;;;;;;;;;;;;;;4.14;100.00;101540.59;4895905;29;19927;-75
2024/01/23 05:01:23;;;;;;;;;;;;;;;4.07;100.00;101561.63;4895419;29;20444;-75
2024/01/23 05:03:48;;;;;;;;;;;;;;;4.03;100.00;101563.72;4895525;29;20021;-77
2024/01/23 05:06:16;;;;;;;;;;;;;;;4.05;100.00;101571.56;4895726;29;20377;-73
2024/01/23 05:08:41;;;;;;;;;;;;;;;4.06;100.00;101575.94;4894591;29;19923;-75
2024/01/23 05:11:07;;;;;;;;;;;;;;;4.00;100.00;101585.31;4892257;29;19950;-75
2024/01/23 05:13:33;;;;;;;;;;;;;;;3.90;100.00;101581.75;4894435;29;19927;-75
2024/01/23 05:15:58;;;;;;;;;;;;;;;3.83;100.00;101577.97;4895692;29;19934;-75
2024/01/23 05:18:23;;;;;;;;;;;;;;;3.82;100.00;101589.59;4894857;29;19920;-75
2024/01/23 05:20:48;;;;;;;;;;;;;;;3.82;100.00;101600.25;4895377;29;19934;-75
2024/01/23 05:23:20;;;;;;;;;;;;;;;3.77;100.00;101606.81;4895033;29;20038;-75
2024/01/23 05:25:45;;;;;;;;;;;;;;;3.81;100.00;101614.53;4896235;29;19919;-75
2024/01/23 05:28:11;;;;;;;;;;;;;;;3.86;100.00;101612.31;4899656;29;19988;-75
2024/01/23 05:30:36;;;;;;;;;;;;;;;3.82;100.00;101616.22;4898872;29;19934;-75
2024/01/23 05:33:02;;;;;;;;;;;;;;;3.82;100.00;101629.53;4897954;29;19923;-75
2024/01/23 05:35:27;;;;;;;;;;;;;;;3.83;100.00;101626.72;4899505;29;19927;-75
2024/01/23 05:37:55;;;;;;;;;;;;;;;3.84;100.00;101639.06;4898271;29;19931;-75
2024/01/23 05:40:20;;;;;;;;;;;;;;;3.91;100.00;101650.91;4898096;29;19928;-75
2024/01/23 05:42:46;;;;;;;;;;;;;;;3.98;100.00;101661.00;4899456;29;20419;-75
2024/01/23 05:45:13;;;;;;;;;;;;;;;3.94;100.00;101655.97;4898411;29;20287;-76
2024/01/23 05:47:41;;;;;;;;;;;;;;;3.95;100.00;101654.13;4898802;29;19930;-75
2024/01/23 05:50:06;;;;;;;;;;;;;;;3.99;100.00;101674.22;4899136;29;20459;-77
2024/01/23 05:52:32;;;;;;;;;;;;;;;4.05;100.00;101683.47;4897113;29;20018;-76
2024/01/23 05:54:59;;;;;;;;;;;;;;;4.05;100.00;101687.00;4898390;29;19950;-76
2024/01/23 05:57:24;;;;;;;;;;;;;;;4.10;100.00;101690.09;4899734;29;19923;-76
2024/01/23 05:59:49;;;;;;;;;;;;;;;4.09;100.00;101703.56;4897983;29;19936;-77
2024/01/23 06:02:14;;;;;;;;;;;;;;;4.14;100.00;101709.34;4898627;29;20006;-76
2024/01/23 06:04:41;;;;;;;;;;;;;;;4.15;100.00;101699.50;4899357;29;19982;-76
2024/01/23 06:07:06;;;;;;;;;;;;;;;4.12;100.00;101716.63;4897902;29;19923;-76
2024/01/23 06:09:32;;;;;;;;;;;;;;;4.13;100.00;101720.13;4897995;29;19930;-76
2024/01/23 06:11:58;;;;;;;;;;;;;;;4.16;100.00;101727.84;4898131;29;19927;-76
2024/01/23 06:14:23;;;;;;;;;;;;;;;4.17;100.00;101729.53;4897401;29;20349;-76
2024/01/23 06:16:48;;;;;;;;;;;;;;;4.16;100.00;101722.53;4903240;29;19927;-77
2024/01/23 06:19:13;;;;;;;;;;;;;;;4.19;100.00;101738.25;4916372;29;20047;-77
2024/01/23 06:21:38;;;;;;;;;;;;;;;4.17;100.00;101741.03;4899702;29;20392;-76
2024/01/23 06:24:04;;;;;;;;;;;;;;;4.17;100.00;101745.53;4897829;29;19931;-76
2024/01/23 06:26:30;;;;;;;;;;;;;;;4.16;100.00;101749.16;4898748;29;19924;-76
2024/01/23 06:28:58;;;;;;;;;;;;;;;4.15;100.00;101763.47;4896608;29;20014;-76
2024/01/23 06:31:26;;;;;;;;;;;;;;;4.17;100.00;101773.00;4896633;29;20014;-76
2024/01/23 06:33:54;;;;;;;;;;;;;;;4.22;100.00;101768.13;4897816;29;20283;-76
2024/01/23 06:36:21;;;;;;;;;;;;;;;4.18;100.00;101768.53;4895860;29;19928;-76
2024/01/23 06:38:47;;;;;;;;;;;;;;;4.16;100.00;101781.16;4897144;29;19923;-76
2024/01/23 06:41:12;;;;;;;;;;;;;;;4.09;100.00;101787.00;4896686;29;19934;-75
2024/01/23 06:43:37;;;;;;;;;;;;;;;4.10;100.00;101785.19;4896052;29;19928;-76
2024/01/23 06:46:05;;;;;;;;;;;;;;;4.13;100.00;101786.75;4897067;29;19927;-76
2024/01/23 06:48:31;;;;;;;;;;;;;;;4.06;100.00;101803.25;4897047;29;19934;-76
2024/01/23 06:50:56;;;;;;;;;;;;;;;4.06;100.00;101795.25;4906306;29;19950;-76
2024/01/23 06:53:21;;;;;;;;;;;;;;;4.06;100.00;101802.41;4909663;29;19923;-76
2024/01/23 06:55:47;;;;;;;;;;;;;;;4.01;100.00;101805.47;4910474;29;19923;-76
2024/01/23 06:58:12;;;;;;;;;;;;;;;3.99;100.00;101804.75;4897454;29;19931;-77
2024/01/23 07:00:38;;;;;;;;;;;;;;;3.97;100.00;101814.69;4896841;29;19935;-77
2024/01/23 07:03:03;;;;;;;;;;;;;;;4.02;100.00;101817.81;4896537;29;20337;-76
2024/01/23 07:05:28;;;;;;;;;;;;;;;4.00;100.00;101821.56;4896567;29;20384;-76
2024/01/23 07:07:54;;;;;;;;;;;;;;;3.87;100.00;101813.78;4896187;29;19932;-76
2024/01/23 07:10:19;;;;;;;;;;;;;;;3.85;100.00;101821.06;4895763;29;19970;-76
2024/01/23 07:12:44;;;;;;;;;;;;;;;3.73;100.00;101817.59;4896561;29;20018;-76
2024/01/23 07:15:09;;;;;;;;;;;;;;;3.67;100.00;101823.44;4896236;29;20034;-76
2024/01/23 07:17:36;;;;;;;;;;;;;;;3.61;100.00;101824.78;4896059;29;19954;-76
2024/01/23 07:20:02;;;;;;;;;;;;;;;3.54;100.00;101834.25;4896435;29;19931;-76
2024/01/23 07:22:27;;;;;;;;;;;;;;;3.49;100.00;101832.81;4895729;29;19927;-76
2024/01/23 07:24:52;;;;;;;;;;;;;;;3.42;100.00;101830.78;4895416;29;19924;-76
2024/01/23 07:27:19;;;;;;;;;;;;;;;3.40;100.00;101830.06;4896459;29;20345;-76
2024/01/23 07:29:45;;;;;;;;;;;;;;;3.36;100.00;101834.78;4836766;29;1749976;-76
2024/01/23 07:32:10;;;;;;;;;;;;;;;3.38;100.00;101843.47;4896496;29;20368;-76
2024/01/23 07:34:35;;;;;;;;;;;;;;;3.36;100.00;101848.09;4897296;29;19927;-75
2024/01/23 07:37:00;;;;;;;;;;;;;;;3.37;100.00;101855.09;4896613;29;19998;-76
2024/01/23 07:39:26;;;;;;;;;;;;;;;3.37;100.00;101860.41;4895506;29;20313;-75
2024/01/23 07:41:51;;;;;;;;;;;;;;;3.37;100.00;101873.72;4897430;29;20352;-77
2024/01/23 07:44:16;;;;;;;;;;;;;;;3.35;100.00;101883.69;4896329;29;19930;-77
2024/01/23 07:46:41;;;;;;;;;;;;;;;3.35;100.00;101889.00;4895906;29;19923;-77
2024/01/23 07:49:07;;;;;;;;;;;;;;;3.38;100.00;101891.41;4896675;29;19923;-77
2024/01/23 07:51:49;;;;;;;;;;;;;;;3.37;100.00;101888.88;4896257;29;20376;-76
2024/01/23 07:54:14;;;;;;;;;;;;;;;3.34;100.00;101897.97;4896588;29;19973;-77
2024/01/23 07:56:39;;;;;;;;;;;;;;;3.29;100.00;101890.31;4879964;29;19963;-77
2024/01/23 07:59:05;;;;;;;;;;;;;;;3.29;100.00;101905.47;4895305;29;19977;-77
2024/01/23 08:01:30;;;;;;;;;;;;;;;3.36;100.00;101903.97;4896016;29;19932;-77
2024/01/23 08:03:57;;;;;;;;;;;;;;;3.24;100.00;101903.16;4897283;29;19923;-77
2024/01/23 08:06:22;;;;;;;;;;;;;;;3.32;100.00;101921.19;4895301;29;20364;-77
2024/01/23 08:08:47;;;;;;;;;;;;;;;3.25;100.00;101926.16;4896094;29;19923;-77
2024/01/23 08:11:13;;;;;;;;;;;;;;;3.27;100.00;101926.84;4897583;29;20022;-77
2024/01/23 08:13:38;;;;;;;;;;;;;;;3.69;100.00;101934.19;4895336;29;20015;-75
2024/01/23 08:16:07;;;;;;;;;;;;;;;3.72;100.00;101943.75;4896055;29;20011;-77
2024/01/23 08:18:32;;;;;;;;;;;;;;;3.96;100.00;101956.88;4897210;29;19927;-76
2024/01/23 08:20:57;;;;;;;;;;;;;;;4.32;100.00;101953.97;4895154;29;19947;-75
2024/01/23 08:23:23;;;;;;;;;;;;;;;4.20;100.00;101953.16;4895945;29;19923;-75
2024/01/23 08:25:48;;;;;;;;;;;;;;;4.02;100.00;101952.84;4895932;29;20064;-76
2024/01/23 08:28:13;;;;;;;;;;;;;;;3.92;100.00;101952.75;4894844;29;20495;-76
2024/01/23 08:30:38;;;;;;;;;;;;;;;4.19;100.00;101962.97;4878916;29;19923;-76
2024/01/23 08:33:04;;;;;;;;;;;;;;;3.81;100.00;101953.63;4896583;29;19926;-76
2024/01/23 08:35:29;;;;;;;;;;;;;;;3.94;100.00;101957.00;4894871;29;19924;-76
2024/01/23 08:37:54;;;;;;;;;;;;;;;3.84;100.00;101952.56;4895904;29;19923;-76
2024/01/23 08:40:20;;;;;;;;;;;;;;;3.91;100.00;101943.06;4896802;29;19995;-76
2024/01/23 08:42:48;;;;;;;;;;;;;;;3.94;100.00;101942.81;4895196;29;20001;-76
2024/01/23 08:45:14;;;;;;;;;;;;;;;3.90;100.00;101949.38;4895789;29;19972;-76
2024/01/23 08:47:39;;;;;;;;;;;;;;;3.88;100.00;101938.03;4896679;29;20308;-77
2024/01/23 08:50:04;;;;;;;;;;;;;;;4.04;100.00;101943.78;4895335;29;19931;-76
2024/01/23 08:52:30;;;;;;;;;;;;;;;3.95;100.00;101947.19;4895519;29;20186;-76
2024/01/23 08:54:55;;;;;;;;;;;;;;;3.98;100.00;101944.28;4895294;29;19924;-76
2024/01/23 08:57:22;;;;;;;;;;;;;;;3.98;100.00;101944.28;4895135;29;20393;-76
2024/01/23 08:59:47;;;;;;;;;;;;;;;4.07;100.00;101953.31;4895940;29;19919;-76
2024/01/23 09:02:14;;;;;;;;;;;;;;;4.01;100.00;101954.69;4899042;29;19971;-75
2024/01/23 09:04:39;;;;;;;;;;;;;;;4.05;100.00;101950.78;4899342;29;20289;-76
2024/01/23 09:07:05;;;;;;;;;;;;;;;4.12;100.00;101958.25;4899068;29;19919;-76
2024/01/23 09:09:32;;;;;;;;;;;;;;;4.09;100.00;101962.88;4898717;29;19934;-76
2024/01/23 09:11:58;;;;;;;;;;;;;;;4.06;100.00;101968.44;4899644;29;19927;-76
2024/01/23 09:14:23;;;;;;;;;;;;;;;4.06;100.00;101967.63;4898768;29;19979;-76
2024/01/23 09:16:49;;;;;;;;;;;;;;;4.19;100.00;101965.63;4890935;29;19924;-76
2024/01/23 09:19:14;;;;;;;;;;;;;;;4.20;100.00;101980.63;4899489;29;20038;-76
2024/01/23 09:21:39;;;;;;;;;;;;;;;4.32;100.00;101968.13;4905041;23;20026;-76
2024/01/23 09:24:05;;;;;;;;;;;;;;;4.38;100.00;101980.09;4898043;29;20011;-77
2024/01/23 09:26:31;;;;;;;;;;;;;;;4.37;100.00;101971.25;4898766;29;19999;-77
2024/01/23 09:28:56;;;;;;;;;;;;;;;4.33;100.00;101980.47;4905152;23;20344;-75
2024/01/23 09:31:22;;;;;;;;;;;;;;;4.37;100.00;101981.91;4898953;29;19927;-76
2024/01/23 09:33:48;;;;;;;;;;;;;;;4.43;100.00;101985.03;4899203;29;20394;-75
2024/01/23 09:36:13;;;;;;;;;;;;;;;4.47;100.00;102003.34;4898301;29;19924;-77
2024/01/23 09:38:38;;;;;;;;;;;;;;;4.43;100.00;102009.03;4898049;29;19919;-77
2024/01/23 09:41:06;;;;;;;;;;;;;;;4.44;100.00;102006.25;4899324;29;20256;-77
2024/01/23 09:43:35;;;;;;;;;;;;;;;4.58;100.00;102013.09;4898727;29;19958;-77
2024/01/23 09:46:00;;;;;;;;;;;;;;;4.64;100.00;102020.56;4881650;29;20006;-77
2024/01/23 09:48:28;;;;;;;;;;;;;;;4.80;100.00;102004.13;4882740;29;20010;-77
2024/01/23 09:50:53;;;;;;;;;;;;;;;4.86;100.00;102013.44;4898181;29;19927;-77
2024/01/23 09:53:19;;;;;;;;;;;;;;;4.81;100.00;102024.50;4898001;29;20416;-77
2024/01/23 09:55:44;;;;;;;;;;;;;;;4.92;100.00;102020.91;4882319;29;19931;-77
2024/01/23 09:58:10;;;;;;;;;;;;;;;4.96;100.00;102030.31;4881543;29;20034;-77
2024/01/23 10:00:35;;;;;;;;;;;;;;;4.88;100.00;102032.81;4896827;29;19931;-77
2024/01/23 10:03:03;;;;;;;;;;;;;;;4.96;100.00;102035.66;4882644;29;19923;-77
2024/01/23 10:05:29;;;;;;;;;;;;;;;5.16;100.00;102046.47;4881167;29;20078;-76
2024/01/23 10:07:56;;;;;;;;;;;;;;;5.13;99.44;102046.72;4898247;29;20038;-76
2024/01/23 10:10:24;;;;;;;;;;;;;;;4.97;100.00;102037.34;4891197;29;19954;-76
2024/01/23 10:12:50;;;;;;;;;;;;;;;5.11;99.45;102043.38;4897001;29;20014;-76
2024/01/23 10:15:21;;;;;;;;;;;;;;;5.12;99.73;102034.34;4897866;29;20015;-76
2024/01/23 10:17:46;;;;;;;;;;;;;;;5.24;99.17;102044.00;4898233;29;19971;-76
2024/01/23 10:20:11;;;;;;;;;;;;;;;5.18;99.67;102039.19;4896926;29;19928;-77
2024/01/23 10:22:37;;;;;;;;;;;;;;;5.34;98.00;102037.84;4898065;29;19927;-77
2024/01/23 10:25:03;;;;;;;;;;;;;;;5.49;97.72;102047.19;4898876;29;19927;-77
2024/01/23 10:27:31;;;;;;;;;;;;;;;5.48;97.02;102042.81;4897252;29;19931;-77
2024/01/23 10:29:56;;;;;;;;;;;;;;;5.52;97.16;102041.59;4897601;29;19931;-77
2024/01/23 10:32:25;;;;;;;;;;;;;;;5.66;96.70;102053.75;4899015;29;19923;-77
2024/01/23 10:34:56;;;;;;;;;;;;;;;5.89;95.09;102050.88;4897114;29;19928;-77
2024/01/23 10:37:21;;;;;;;;;;;;;;;5.74;95.49;102039.72;4896072;29;19931;-77
2024/01/23 10:39:51;;;;;;;;;;;;;;;5.64;96.48;102044.19;4899197;29;20270;-77
2024/01/23 10:42:16;;;;;;;;;;;;;;;5.90;95.09;102047.22;4896877;29;19933;-77
2024/01/23 10:44:42;;;;;;;;;;;;;;;5.85;95.12;102036.09;4897461;29;19924;-77
2024/01/23 10:47:07;;;;;;;;;;;;;;;5.77;94.99;102031.44;4898606;29;19966;-77
2024/01/23 10:49:32;;;;;;;;;;;;;;;5.79;95.46;102042.81;4896593;29;19927;-77
2024/01/23 10:52:04;;;;;;;;;;;;;;;5.74;94.90;102023.69;4897044;29;19971;-76
2024/01/23 10:54:30;;;;;;;;;;;;;;;5.91;93.61;102017.69;4880763;29;19923;-77
2024/01/23 10:56:56;;;;;;;;;;;;;;;5.79;95.48;102026.78;4880657;29;20030;-77
2024/01/23 10:59:24;;;;;;;;;;;;;;;5.87;94.74;102026.13;4897132;29;20018;-76
2024/01/23 11:01:50;;;;;;;;;;;;;;;5.82;94.69;102018.50;4880747;29;20042;-77
2024/01/23 11:04:15;;;;;;;;;;;;;;;5.84;94.44;102018.34;4897331;29;20022;-77
2024/01/23 11:06:55;;;;;;;;;;;;;;;6.00;93.72;102023.22;4896988;29;19923;-77
2024/01/23 11:09:29;;;;;;;;;;;;;;;5.91;94.47;102023.03;4880289;29;19967;-77
2024/01/23 11:12:03;;;;;;;;;;;;;;;6.06;94.95;102030.66;4897187;29;19960;-77
2024/01/23 11:14:29;;;;;;;;;;;;;;;6.05;93.86;102027.16;4896683;29;19931;-77
2024/01/23 11:17:02;;;;;;;;;;;;;;;5.98;93.70;102031.31;4897387;29;19935;-77
2024/01/23 11:19:27;;;;;;;;;;;;;;;6.14;94.27;102014.81;4896476;29;19947;-77
2024/01/23 11:22:05;;;;;;;;;;;;;;;6.26;93.15;102001.28;4897054;29;20450;-77
2024/01/23 11:24:42;;;;;;;;;;;;;;;6.56;90.06;101999.44;4896272;29;20216;-77
2024/01/23 11:27:08;;;;;;;;;;;;;;;6.34;90.11;102017.50;4896915;29;19927;-77
2024/01/23 11:29:33;;;;;;;;;;;;;;;6.25;91.23;102015.66;4896360;29;19979;-76
2024/01/23 11:31:59;;;;;;;;;;;;;;;6.44;90.66;102004.13;4896907;29;19954;-76
2024/01/23 11:34:24;;;;;;;;;;;;;;;6.44;90.08;102002.28;4896599;29;19948;-76
2024/01/23 11:36:51;;;;;;;;;;;;;;;6.67;89.97;101999.31;4895907;29;20346;-76
2024/01/23 11:39:20;;;;;;;;;;;;;;;6.89;89.52;101991.94;4897916;29;19923;-76
2024/01/23 11:41:49;;;;;;;;;;;;;;;6.57;89.63;101987.75;4896467;29;20058;-76
2024/01/23 11:44:14;;;;;;;;;;;;;;;6.43;90.47;101989.88;4896001;29;19971;-77
2024/01/23 11:46:40;;;;;;;;;;;;;;;6.80;87.71;101983.78;4897236;29;20329;-76
2024/01/23 11:49:06;;;;;;;;;;;;;;;6.53;89.00;101989.88;4896534;29;19951;-76
2024/01/23 11:51:31;;;;;;;;;;;;;;;6.43;89.49;102005.94;4895330;29;19966;-76
2024/01/23 11:54:14;;;;;;;;;;;;;;;6.57;89.20;102010.03;4947844;23;19931;-76
2024/01/23 11:56:39;;;;;;;;;;;;;;;6.88;88.85;101993.78;4903316;23;19927;-76
2024/01/23 11:59:08;;;;;;;;;;;;;;;7.56;84.75;101989.19;4878233;29;20804;-76
2024/01/23 12:01:34;;;;;;;;;;;;;;;7.96;81.48;101969.16;4897093;29;19930;-76
2024/01/23 12:04:00;;;;;;;;;;;;;;;8.08;79.98;101956.38;4896533;29;19923;-76
2024/01/23 12:06:25;;;;;;;;;;;;;;;7.85;81.49;101972.91;4895676;29;20418;-77
2024/01/23 12:08:51;;;;;;;;;;;;;;;7.25;84.35;101966.19;4897112;29;19930;-76
2024/01/23 12:11:16;;;;;;;;;;;;;;;7.43;83.76;101971.59;4895800;29;19934;-76
2024/01/23 12:13:44;;;;;;;;;;;;;;;7.99;81.01;101962.66;4895634;29;19930;-76
2024/01/23 12:16:10;;;;;;;;;;;;;;;8.28;79.01;101961.59;4896198;29;20392;-76
2024/01/23 12:18:35;;;;;;;;;;;;;;;8.63;77.97;101976.84;4896258;29;19923;-75
2024/01/23 12:21:00;;;;;;;;;;;;;;;9.01;75.83;101963.16;4895498;29;20365;-75
2024/01/23 12:23:28;;;;;;;;;;;;;;;9.30;72.60;101972.69;4895861;29;20407;-75
2024/01/23 12:25:54;;;;;;;;;;;;;;;8.58;75.85;101971.09;4895947;29;19919;-75
2024/01/23 12:28:20;;;;;;;;;;;;;;;8.50;75.53;101971.03;4895746;29;19931;-76
2024/01/23 12:30:45;;;;;;;;;;;;;;;8.21;76.92;101961.38;4879969;29;19927;-75